Time;durP1;ratioP1;P1;durP2;ratioP2;P2;SDS_P1;SDS_P2;PMS_P1;PMS_P2;Temp;Humidity;BMP_temperature;BMP_pressure;BME280_temperature;BME280_humidity;BME280_pressure;Samples;Min_cycle;Max_cycle;Signal;HPM_P1;HPM_P2
2022/06/29 00:00:52;;;;;;;4.90;4.50;;;19.30;99.90;;;-141.84;59.04;20013.00;5070599;28;20260;-60
2022/06/29 00:03:20;;;;;;;5.38;4.97;;;19.40;99.90;;;-141.84;58.97;20076.03;5069741;28;20734;-60
2022/06/29 00:05:49;;;;;;;5.13;4.72;;;19.40;99.90;;;-141.84;58.94;20069.94;5070090;28;20266;-60
2022/06/29 00:08:17;;;;;;;5.15;4.75;;;19.40;99.90;;;-141.84;59.42;20027.25;5070641;28;20197;-60
2022/06/29 00:10:45;;;;;;;5.40;5.00;;;19.40;99.90;;;-141.84;59.75;20053.66;5070240;28;20231;-60
2022/06/29 00:13:13;;;;;;;5.30;4.90;;;19.40;99.90;;;-141.84;60.06;20035.38;5069234;28;20312;-60
2022/06/29 00:15:43;;;;;;;7.85;5.13;;;19.30;99.90;;;-141.84;60.33;20039.44;5069911;28;20228;-59
2022/06/29 00:18:11;;;;;;;5.25;4.85;;;19.30;99.90;;;-141.84;60.47;20037.41;5070002;28;20311;-61
2022/06/29 00:20:39;;;;;;;5.18;4.78;;;19.30;99.90;;;-141.84;60.81;19984.56;5070740;28;20204;-60
2022/06/29 00:23:08;;;;;;;5.75;5.25;;;19.30;99.90;;;-141.84;61.44;19964.25;5070121;28;20217;-61
2022/06/29 00:25:36;;;;;;;5.15;4.82;;;19.20;99.90;;;-141.84;61.30;19968.31;5069951;28;20313;-60
2022/06/29 00:28:04;;;;;;;5.40;5.00;;;19.20;99.90;;;-141.84;61.86;19964.25;5069867;28;20243;-60
2022/06/29 00:30:33;;;;;;;5.10;4.70;;;19.10;99.90;;;-141.84;61.95;19935.78;5071248;28;20308;-60
2022/06/29 00:33:02;;;;;;;5.28;4.88;;;19.10;99.90;;;-141.84;61.97;19962.19;5073788;28;20216;-58
2022/06/29 00:35:30;;;;;;;5.65;5.15;;;19.10;99.90;;;-141.84;62.21;19984.56;5074562;28;20200;-59
2022/06/29 00:37:58;;;;;;;5.53;5.07;;;19.00;99.90;;;-141.84;62.58;19943.91;5073538;28;20636;-61
2022/06/29 00:40:27;;;;;;;5.68;5.18;;;19.00;99.90;;;-141.84;62.91;19927.66;5073783;28;20234;-60
2022/06/29 00:42:55;;;;;;;6.05;5.22;;;19.00;99.90;;;-141.84;63.48;19901.22;5073372;28;20235;-59
2022/06/29 00:45:23;;;;;;;5.55;5.15;;;18.90;99.90;;;-141.84;63.96;19923.59;5073372;28;20311;-58
2022/06/29 00:47:51;;;;;;;5.60;5.15;;;18.90;99.90;;;-141.84;63.89;19887.00;5073487;28;20826;-60
2022/06/29 00:50:21;;;;;;;5.70;5.13;;;18.80;99.90;;;-141.84;64.50;19850.41;5074488;28;20205;-60
2022/06/29 00:52:49;;;;;;;5.93;5.45;;;18.80;99.90;;;-141.84;65.28;19866.69;5073370;28;20259;-58
2022/06/29 00:55:22;;;;;;;5.18;4.78;;;18.70;99.90;;;-141.84;65.34;19842.28;5073220;28;20224;-59
2022/06/29 00:57:54;;;;;;;5.57;5.13;;;18.70;99.90;;;-141.84;65.04;19870.75;5073510;28;20303;-60
2022/06/29 01:00:22;;;;;;;6.03;5.50;;;18.70;99.90;;;-141.84;65.62;19862.63;5073482;28;20244;-59
2022/06/29 01:02:50;;;;;;;6.07;5.47;;;18.70;99.90;;;-141.84;65.67;19870.75;5073087;28;20237;-60
2022/06/29 01:05:19;;;;;;;6.03;5.55;;;18.70;99.90;;;-141.84;65.01;19862.63;5073641;28;20197;-60
2022/06/29 01:07:48;;;;;;;5.88;5.38;;;18.70;99.90;;;-141.84;65.16;19854.50;5072864;28;20304;-60
2022/06/29 01:10:16;;;;;;;6.15;5.65;;;18.70;99.90;;;-141.84;65.68;19842.28;5073328;28;20252;-58
2022/06/29 01:12:44;;;;;;;5.97;5.47;;;18.70;99.90;;;-141.84;66.23;19836.19;5057640;28;20304;-59
2022/06/29 01:15:12;;;;;;;5.68;5.13;;;18.70;99.90;;;-141.84;66.65;19811.81;5052995;28;20225;-58
2022/06/29 01:17:41;;;;;;;6.05;5.55;;;18.60;99.90;;;-141.84;66.47;19836.19;5053500;28;20211;-59
2022/06/29 01:20:11;;;;;;;5.60;5.20;;;18.60;99.90;;;-141.84;66.42;19817.91;5053775;28;20217;-60
2022/06/29 01:22:41;;;;;;;5.53;5.03;;;18.60;99.90;;;-141.84;66.93;19819.94;5053184;28;20221;-59
2022/06/29 01:25:10;;;;;;;5.95;5.53;;;18.60;99.90;;;-141.84;67.71;19805.72;5052742;28;20251;-59
2022/06/29 01:27:39;;;;;;;6.13;5.55;;;18.50;99.90;;;-141.84;67.86;19791.47;5053477;28;20271;-60
2022/06/29 01:30:10;;;;;;;5.80;5.40;;;18.50;99.90;;;-141.84;68.45;19783.34;5056714;28;20727;-59
2022/06/29 01:32:39;;;;;;;6.00;5.50;;;18.40;99.90;;;-141.84;68.01;19783.34;5073526;28;20212;-60
2022/06/29 01:35:11;;;;;;;6.00;5.50;;;18.40;99.90;;;-141.84;68.20;19789.44;5073107;28;20250;-60
2022/06/29 01:37:42;;;;;;;6.10;5.50;;;18.40;99.90;;;-141.84;68.18;19752.88;5073073;28;20248;-58
2022/06/29 01:40:12;;;;;;;5.80;5.40;;;18.50;99.90;;;-141.84;67.87;19791.47;5072789;28;20251;-60
2022/06/29 01:42:41;;;;;;;6.30;5.70;;;18.40;99.90;;;-141.84;68.32;19809.78;5071978;28;20243;-59
2022/06/29 01:45:10;;;;;;;6.30;5.68;;;18.40;99.90;;;-141.84;68.68;19746.78;5072378;28;20267;-60
2022/06/29 01:47:38;;;;;;;6.57;5.97;;;18.40;99.90;;;-141.84;68.45;19783.34;5072845;28;20197;-60
2022/06/29 01:50:07;;;;;;;6.07;5.57;;;18.40;99.90;;;-141.84;68.41;19744.75;5072461;28;20319;-59
2022/06/29 01:52:35;;;;;;;5.93;5.53;;;18.30;99.90;;;-141.84;68.71;19821.97;5072089;28;20350;-58
2022/06/29 01:55:06;;;;;;;6.10;5.60;;;18.30;99.90;;;-141.84;68.83;19750.84;5072012;28;20232;-60
2022/06/29 01:57:34;;;;;;;6.40;5.90;;;18.30;99.90;;;-141.84;69.46;19700.03;5072288;28;20228;-59
2022/06/29 02:00:03;;;;;;;6.38;5.82;;;18.20;99.90;;;-141.84;69.82;19691.91;5072631;28;20312;-61
2022/06/29 02:02:31;;;;;;;6.60;6.05;;;18.10;99.90;;;-141.84;70.10;19683.78;5072789;28;20287;-58
2022/06/29 02:05:00;;;;;;;5.85;5.45;;;18.10;99.90;;;-141.84;69.78;19726.44;5071482;28;20304;-59
2022/06/29 02:07:28;;;;;;;6.13;5.63;;;18.10;99.90;;;-141.84;69.94;19720.34;5071878;28;20789;-60
2022/06/29 02:09:56;;;;;;;6.03;5.53;;;18.00;99.90;;;-141.84;69.37;19714.25;5071955;28;20225;-59
2022/06/29 02:12:26;;;;;;;7.32;5.82;;;18.10;99.90;;;-141.84;70.13;19689.88;5059415;28;20229;-60
2022/06/29 02:14:54;;;;;;;6.30;5.78;;;18.10;99.90;;;-141.84;70.72;19671.56;5051925;28;20263;-59
2022/06/29 02:17:22;;;;;;;6.43;5.93;;;18.00;99.90;;;-141.84;70.28;19740.69;5052256;28;20200;-60
2022/06/29 02:19:54;;;;;;;5.93;5.43;;;18.00;99.90;;;-141.84;70.41;19691.91;5051827;28;20731;-59
2022/06/29 02:22:22;;;;;;;6.47;5.97;;;18.00;99.90;;;-141.84;71.15;19691.91;5051897;28;20312;-59
2022/06/29 02:24:50;;;;;;;6.05;5.55;;;18.00;99.90;;;-141.84;71.07;19683.78;5051556;28;20228;-61
2022/06/29 02:27:18;;;;;;;5.80;5.30;;;18.00;99.90;;;-141.84;70.64;19689.88;5051824;28;20344;-58
2022/06/29 02:29:48;;;;;;;5.90;5.50;;;18.00;99.90;;;-141.84;70.49;19712.22;5052232;28;20197;-60
2022/06/29 02:35:02;;;;;;;6.10;5.60;;;18.00;99.90;;;-141.84;71.01;19700.03;5071199;28;20767;-60
2022/06/29 02:37:31;;;;;;;5.88;5.38;;;18.00;99.90;;;-141.84;70.95;19691.91;5071409;28;20252;-59
2022/06/29 02:40:00;;;;;;;7.07;6.10;;;18.00;99.90;;;-141.84;70.76;19732.53;5071342;28;20311;-60
2022/06/29 02:42:28;;;;;;;7.32;5.65;;;18.00;99.90;;;-141.84;71.13;19683.78;5071390;28;20224;-59
2022/06/29 02:45:18;;;;;;;5.82;5.32;;;18.00;99.90;;;-141.84;71.62;19679.72;5071269;28;20228;-59
2022/06/29 02:47:49;;;;;;;5.50;5.00;;;17.90;99.90;;;-141.84;71.69;19675.63;5071284;28;20185;-60
2022/06/29 02:50:17;;;;;;;6.22;5.72;;;17.90;99.90;;;-141.84;72.08;19659.38;5071924;28;20236;-59
2022/06/29 02:52:45;;;;;;;5.97;5.43;;;17.90;99.90;;;-141.84;72.22;19661.41;5070889;28;20224;-60
2022/06/29 02:55:14;;;;;;;5.80;5.40;;;17.90;99.90;;;-141.84;72.29;19657.34;5070575;28;20225;-59
2022/06/29 02:57:42;;;;;;;5.90;5.40;;;17.80;99.90;;;-141.84;72.50;19637.03;5071016;28;20227;-61
2022/06/29 03:00:13;;;;;;;5.78;5.28;;;17.80;99.90;;;-141.84;72.40;19639.06;5071089;28;20587;-60
2022/06/29 03:02:43;;;;;;;6.22;5.68;;;17.80;99.90;;;-141.84;72.74;19618.75;5071212;28;20639;-59
2022/06/29 03:05:12;;;;;;;6.50;5.40;;;17.80;99.90;;;-141.84;72.94;19639.06;5071105;28;20471;-60
2022/06/29 03:07:40;;;;;;;6.10;5.60;;;17.80;99.90;;;-141.84;73.60;19618.75;5070640;28;20221;-60
2022/06/29 03:10:11;;;;;;;6.32;5.45;;;17.80;99.90;;;-141.84;72.85;19655.31;5070587;28;20228;-60
2022/06/29 03:12:39;;;;;;;5.55;5.05;;;17.80;99.90;;;-141.84;73.47;19657.34;5055992;28;20260;-58
2022/06/29 03:15:09;;;;;;;5.95;5.45;;;17.80;99.90;;;-141.84;73.15;19675.63;5050665;28;20256;-62
2022/06/29 03:17:37;;;;;;;7.20;5.53;;;17.80;99.90;;;-141.84;72.62;19635.00;5051010;28;20616;-58
2022/06/29 03:20:08;;;;;;;6.53;5.93;;;17.90;99.90;;;-141.84;72.27;19687.84;5050701;28;20231;-60
2022/06/29 03:22:38;;;;;;;5.95;5.55;;;17.90;99.90;;;-141.84;72.60;19671.56;5050861;28;20221;-59
2022/06/29 03:25:07;;;;;;;5.70;5.20;;;18.00;99.90;;;-141.84;72.32;19681.75;5050507;28;20233;-60
2022/06/29 03:27:35;;;;;;;5.72;5.20;;;18.00;99.90;;;-141.84;71.36;19665.47;5050446;28;20355;-58
2022/06/29 03:30:05;;;;;;;5.30;4.90;;;18.10;99.90;;;-141.84;71.21;19695.97;5053181;28;20240;-58
2022/06/29 03:32:33;;;;;;;5.65;5.15;;;18.20;99.90;;;-141.84;71.27;19683.78;5071202;28;20527;-60
2022/06/29 03:35:02;;;;;;;5.68;5.18;;;18.20;99.90;;;-141.84;70.58;19712.22;5070328;28;20745;-58
2022/06/29 03:37:32;;;;;;;6.00;5.40;;;18.30;99.90;;;-141.84;69.88;19744.75;5070171;28;20402;-59
2022/06/29 03:40:00;;;;;;;5.28;4.88;;;18.40;99.90;;;-141.84;70.15;19742.72;5070103;28;20235;-61
2022/06/29 03:42:29;;;;;;;5.72;5.28;;;18.50;99.90;;;-141.84;70.08;19708.16;5070381;28;20220;-59
2022/06/29 03:44:57;;;;;;;5.80;5.40;;;18.50;99.90;;;-141.84;69.43;19763.03;5070399;28;20283;-61
2022/06/29 03:47:25;;;;;;;5.88;5.38;;;18.60;99.90;;;-141.84;68.85;19752.88;5070319;28;20215;-59
2022/06/29 03:49:53;;;;;;;5.25;4.88;;;18.60;99.90;;;-141.84;69.47;19799.63;5070429;28;20239;-60
2022/06/29 03:52:21;;;;;;;5.10;4.70;;;18.60;99.90;;;-141.84;69.76;19761.00;5070534;28;20248;-59
2022/06/29 03:54:51;;;;;;;6.22;5.47;;;18.70;99.90;;;-141.84;68.14;19789.44;5069970;28;20312;-59
2022/06/29 03:57:19;;;;;;;7.07;5.20;;;18.80;99.90;;;-141.84;68.52;19795.53;5069973;28;20302;-60
2022/06/29 03:59:47;;;;;;;5.57;5.07;;;18.80;99.90;;;-141.84;68.02;19765.06;5070193;28;20240;-59
2022/06/29 04:02:15;;;;;;;4.97;4.57;;;18.80;99.90;;;-141.84;68.48;19826.03;5070798;28;20239;-60
2022/06/29 04:04:44;;;;;;;5.25;4.82;;;18.80;99.90;;;-141.84;67.49;19821.97;5070374;28;20228;-60
2022/06/29 04:07:12;;;;;;;6.00;5.50;;;18.90;99.90;;;-141.84;67.68;19819.94;5076523;28;20307;-60
2022/06/29 04:09:40;;;;;;;6.05;5.45;;;18.90;99.90;;;-141.84;67.57;19813.84;5076522;28;20234;-60
2022/06/29 04:12:11;;;;;;;5.82;5.22;;;18.90;99.90;;;-141.84;67.33;19834.16;5066344;28;20255;-61
2022/06/29 04:14:39;;;;;;;5.30;4.78;;;19.00;99.90;;;-141.84;67.37;19842.28;5057223;28;20312;-58
2022/06/29 04:17:07;;;;;;;5.93;5.35;;;19.00;99.90;;;-141.84;67.26;19840.25;5075397;28;20227;-59
2022/06/29 04:19:35;;;;;;;6.00;5.38;;;19.00;99.90;;;-141.84;66.56;19838.22;5076630;28;20315;-62
2022/06/29 04:22:04;;;;;;;5.97;5.38;;;19.10;99.90;;;-141.84;66.77;19874.81;5076875;28;20236;-60
2022/06/29 04:24:33;;;;;;;5.55;5.15;;;19.10;99.90;;;-141.84;67.69;19848.38;5076304;28;20224;-59
2022/06/29 04:27:02;;;;;;;6.30;5.45;;;19.10;99.90;;;-141.84;67.66;19826.03;5076583;28;20288;-60
2022/06/29 04:29:31;;;;;;;6.30;5.80;;;19.00;99.90;;;-141.84;66.88;19817.91;5076916;28;20755;-60
2022/06/29 04:31:59;;;;;;;6.40;5.35;;;19.10;99.90;;;-141.84;67.47;19791.47;5076486;28;20315;-60
2022/06/29 04:34:27;;;;;;;6.25;5.72;;;19.10;99.90;;;-141.84;67.89;19846.34;5076423;28;20259;-60
2022/06/29 04:36:56;;;;;;;6.13;5.68;;;19.10;99.90;;;-141.84;67.64;19826.03;5076259;28;20232;-59
2022/06/29 04:39:24;;;;;;;6.05;5.55;;;19.10;99.90;;;-141.84;67.53;19858.56;5076117;28;20229;-60
2022/06/29 04:41:53;;;;;;;6.15;5.35;;;19.10;99.90;;;-141.84;67.63;19821.97;5077058;28;20211;-60
2022/06/29 04:44:21;;;;;;;6.03;5.53;;;19.20;99.90;;;-141.84;67.42;19826.03;5077054;28;20273;-59
2022/06/29 04:46:51;;;;;;;6.90;5.72;;;19.20;99.90;;;-141.84;67.73;19840.25;5076132;28;20330;-59
2022/06/29 04:49:19;;;;;;;6.80;5.50;;;19.20;99.90;;;-141.84;67.43;19848.38;5076439;28;20319;-58
2022/06/29 04:51:47;;;;;;;6.57;6.03;;;19.20;99.90;;;-141.84;67.33;19834.16;5076824;28;20228;-59
2022/06/29 04:54:15;;;;;;;6.10;5.60;;;19.40;99.90;;;-141.84;67.88;19811.81;5076052;28;20228;-58
2022/06/29 04:56:43;;;;;;;6.43;5.60;;;19.20;99.90;;;-141.84;68.67;19809.78;5076266;28;20228;-59
2022/06/29 04:59:11;;;;;;;6.40;5.57;;;19.20;99.90;;;-141.84;68.05;19874.81;5076652;28;20236;-59
2022/06/29 05:01:40;;;;;;;5.95;5.45;;;19.20;99.90;;;-141.84;68.43;19828.06;5076439;28;20233;-59
2022/06/29 05:04:09;;;;;;;7.18;6.45;;;19.20;99.90;;;-141.84;68.20;19842.28;5075962;28;20601;-59
2022/06/29 05:06:37;;;;;;;6.80;6.20;;;19.30;99.90;;;-141.84;67.66;19889.03;5076232;28;20307;-59
2022/06/29 05:09:06;;;;;;;7.15;5.90;;;19.40;99.90;;;-141.84;67.33;19866.69;5076102;28;20248;-59
2022/06/29 05:11:34;;;;;;;7.32;5.88;;;19.50;99.90;;;-141.84;67.36;19864.66;5071108;28;20280;-59
2022/06/29 05:14:02;;;;;;;9.00;5.88;;;19.50;99.90;;;-141.84;67.23;19874.81;5055903;28;20599;-59
2022/06/29 05:16:30;;;;;;;7.00;6.40;;;19.60;99.90;;;-141.84;66.72;19915.47;5054606;28;20225;-59
2022/06/29 05:18:58;;;;;;;6.53;5.93;;;19.70;99.90;;;-141.84;66.43;19911.41;5053212;28;20234;-59
2022/06/29 05:21:28;;;;;;;5.93;5.43;;;19.80;99.90;;;-141.84;66.80;19901.22;5053364;28;20316;-59
2022/06/29 05:23:56;;;;;;;6.95;6.30;;;19.80;99.90;;;-141.84;66.07;19915.47;5052644;28;20292;-59
2022/06/29 05:26:24;;;;;;;6.82;6.13;;;19.90;99.90;;;-141.84;66.38;19927.66;5057011;28;20193;-58
2022/06/29 05:28:53;;;;;;;7.55;6.47;;;19.90;99.90;;;-141.84;66.63;19929.69;5072413;28;20226;-59
2022/06/29 05:31:23;;;;;;;7.25;6.45;;;20.00;99.90;;;-141.84;66.04;19947.97;5072997;28;20288;-60
2022/06/29 05:33:51;;;;;;;6.72;6.15;;;20.00;99.90;;;-141.84;65.77;19984.56;5072557;28;20233;-58
2022/06/29 05:36:19;;;;;;;6.90;6.30;;;20.10;99.90;;;-141.84;66.08;19937.81;5072575;28;20229;-59
2022/06/29 05:38:48;;;;;;;6.68;6.15;;;20.10;99.90;;;-141.84;66.44;19907.31;5072169;28;20649;-59
2022/06/29 05:41:17;;;;;;;7.05;6.45;;;20.00;99.90;;;-141.84;67.76;19899.19;5072995;28;20292;-59
2022/06/29 05:43:49;;;;;;;6.97;6.10;;;19.90;99.90;;;-141.84;67.60;19919.53;5072262;28;20263;-59
2022/06/29 05:46:18;;;;;;;7.72;6.75;;;19.90;99.90;;;-141.84;68.05;19913.44;5072053;28;20648;-59
2022/06/29 05:48:47;;;;;;;7.40;6.70;;;19.90;99.90;;;-141.84;68.47;19891.06;5071572;28;20238;-58
2022/06/29 05:51:15;;;;;;;7.40;6.70;;;19.90;99.90;;;-141.84;68.36;19887.00;5072236;28;20272;-60
2022/06/29 05:53:44;;;;;;;6.82;6.32;;;19.90;99.90;;;-141.84;69.21;19872.78;5072066;28;20204;-59
2022/06/29 05:56:13;;;;;;;7.53;6.70;;;19.90;99.90;;;-141.84;68.62;19919.53;5072327;28;20259;-59
2022/06/29 05:58:41;;;;;;;7.85;6.85;;;19.90;99.90;;;-141.84;69.03;19889.03;5071748;28;20303;-59
2022/06/29 06:01:13;;;;;;;10.20;7.38;;;19.90;99.90;;;-141.84;69.38;19882.94;5071864;28;20314;-60
2022/06/29 06:03:41;;;;;;;11.90;7.60;;;19.90;99.90;;;-141.84;69.25;19901.22;5072067;28;20316;-60
2022/06/29 06:06:09;;;;;;;11.57;7.70;;;19.90;99.90;;;-141.84;69.27;19901.22;5072018;28;20244;-59
2022/06/29 06:08:37;;;;;;;9.18;7.90;;;19.90;99.90;;;-141.84;69.91;19856.53;5072282;28;20331;-59
2022/06/29 06:11:06;;;;;;;8.50;7.63;;;19.90;99.90;;;-141.84;69.92;19870.75;5070041;28;20224;-60
2022/06/29 06:13:35;;;;;;;8.18;7.47;;;19.90;99.90;;;-141.84;70.55;19840.25;5052150;28;20710;-60
2022/06/29 06:16:04;;;;;;;8.90;8.02;;;19.90;99.90;;;-141.84;69.97;19870.75;5051523;28;20239;-59
2022/06/29 06:18:52;;;;;;;7.60;6.90;;;19.90;99.90;;;-141.84;70.55;19858.56;5051557;28;20704;-58
2022/06/29 06:21:21;;;;;;;8.90;7.85;;;19.90;99.90;;;-141.84;70.41;19858.56;5052153;28;20316;-59
2022/06/29 06:23:50;;;;;;;10.63;7.93;;;20.10;99.90;;;-141.84;70.53;19870.75;5064929;28;20207;-60
2022/06/29 06:26:18;;;;;;;11.65;7.60;;;20.00;99.90;;;-141.84;70.59;19864.66;5072120;28;20258;-61
2022/06/29 06:28:47;;;;;;;8.27;7.47;;;20.00;99.90;;;-141.84;70.53;19866.69;5071132;28;20589;-60
2022/06/29 06:31:23;;;;;;;8.13;7.38;;;20.10;99.90;;;-141.84;71.60;19870.75;5071480;28;20224;-59
2022/06/29 06:33:51;;;;;;;10.23;9.00;;;20.10;99.90;;;-141.84;70.80;19878.88;5071544;28;20270;-59
2022/06/29 06:36:19;;;;;;;8.60;7.78;;;20.10;99.90;;;-141.84;69.96;19880.91;5071351;28;20224;-60
2022/06/29 06:38:47;;;;;;;9.00;8.27;;;20.20;99.90;;;-141.84;69.65;19927.66;5071384;28;20232;-60
2022/06/29 06:41:26;;;;;;;9.20;8.38;;;20.30;99.90;;;-141.84;69.44;19923.59;5071539;28;20201;-59
2022/06/29 06:43:58;;;;;;;9.50;8.65;;;20.40;99.90;;;-141.84;68.31;19947.97;5071048;28;20604;-59
2022/06/29 06:46:29;;;;;;;9.05;8.23;;;20.60;99.90;;;-141.84;68.15;19943.91;5071177;28;20570;-58
2022/06/29 06:48:57;;;;;;;9.45;8.27;;;20.70;99.90;;;-141.84;68.31;19941.88;5071089;28;20232;-59
2022/06/29 06:51:25;;;;;;;11.73;8.60;;;20.70;99.90;;;-141.84;68.43;19954.06;5070982;28;20300;-61
2022/06/29 06:53:55;;;;;;;9.43;8.43;;;20.70;99.90;;;-141.84;67.79;19986.59;5071136;28;20551;-60
2022/06/29 06:56:23;;;;;;;9.25;8.45;;;20.80;99.90;;;-141.84;67.05;19992.69;5071059;28;20719;-59
2022/06/29 06:58:51;;;;;;;9.45;8.55;;;21.00;99.90;;;-141.84;67.57;19980.50;5071002;28;20231;-60
2022/06/29 07:01:24;;;;;;;9.00;8.20;;;21.00;99.90;;;-141.84;67.19;20029.28;5070631;28;20228;-59
2022/06/29 07:03:52;;;;;;;9.88;8.10;;;21.10;99.90;;;-141.84;66.12;20013.00;5071176;28;20255;-59
2022/06/29 07:06:20;;;;;;;9.10;8.40;;;21.20;99.90;;;-141.84;66.21;20045.53;5070779;28;20228;-58
2022/06/29 07:08:49;;;;;;;9.57;8.68;;;21.20;99.90;;;-141.84;66.24;20069.94;5070820;28;20236;-59
2022/06/29 07:11:18;;;;;;;9.23;8.32;;;21.30;99.90;;;-141.84;66.70;20059.75;5067933;28;20263;-59
2022/06/29 07:13:46;;;;;;;9.25;8.45;;;21.30;99.90;;;-141.84;66.12;20025.22;5050930;28;20588;-60
2022/06/29 07:16:14;;;;;;;9.32;8.52;;;21.30;99.90;;;-141.84;66.54;20025.22;5050414;28;20235;-59
2022/06/29 07:18:43;;;;;;;8.77;8.07;;;21.30;99.90;;;-141.84;66.91;20049.59;5052562;28;20243;-59
2022/06/29 07:21:12;;;;;;;8.40;7.60;;;21.20;99.90;;;-141.84;66.92;20004.88;5066605;28;20717;-61
2022/06/29 07:23:40;;;;;;;8.75;7.95;;;21.20;99.90;;;-141.84;66.33;20019.13;5071054;28;20672;-59
2022/06/29 07:26:08;;;;;;;8.23;7.43;;;21.30;99.90;;;-141.84;67.29;20013.00;5070442;28;20295;-60
2022/06/29 07:28:38;;;;;;;7.82;7.03;;;21.20;99.90;;;-141.84;67.61;19972.38;5069922;28;20810;-60
2022/06/29 07:31:07;;;;;;;7.90;7.30;;;21.10;99.90;;;-141.84;67.92;19986.59;5069880;28;20311;-59
2022/06/29 07:33:36;;;;;;;7.57;6.88;;;21.10;99.90;;;-141.84;67.17;19980.50;5070288;28;20231;-59
2022/06/29 07:36:06;;;;;;;7.68;7.07;;;21.10;99.90;;;-141.84;67.82;19941.88;5070449;28;20213;-59
2022/06/29 07:38:35;;;;;;;7.53;6.82;;;21.10;99.90;;;-141.84;67.70;19968.31;5056727;28;20274;-59
2022/06/29 07:41:04;;;;;;;6.78;6.28;;;21.00;99.90;;;-141.84;68.33;19968.31;5054175;28;20251;-59
2022/06/29 07:43:32;;;;;;;7.00;6.30;;;21.00;99.90;;;-141.84;68.19;19947.97;5049874;28;20207;-61
2022/06/29 07:46:00;;;;;;;7.20;6.47;;;20.90;99.90;;;-141.84;68.27;19972.38;5052380;28;20247;-60
2022/06/29 07:48:28;;;;;;;7.07;6.47;;;21.00;99.90;;;-141.84;68.47;19945.94;5070238;28;20285;-59
2022/06/29 07:50:57;;;;;;;7.45;6.10;;;20.90;99.90;;;-141.84;69.84;19933.75;5070096;28;20652;-60
2022/06/29 07:53:26;;;;;;;6.13;5.60;;;20.90;99.90;;;-141.84;70.61;19872.78;5070476;28;20278;-60
2022/06/29 07:55:55;;;;;;;6.18;5.60;;;20.90;99.90;;;-141.84;70.50;19941.88;5056787;28;20225;-60
2022/06/29 07:58:23;;;;;;;7.90;6.00;;;21.00;99.90;;;-141.84;70.89;19905.28;5050498;28;20201;-59
2022/06/29 08:00:52;;;;;;;6.30;5.70;;;21.00;99.90;;;-141.84;69.50;19925.63;5050523;28;20506;-60
2022/06/29 08:03:20;;;;;;;5.22;4.78;;;21.00;99.90;;;-141.84;67.78;19962.19;5049795;28;20252;-61
2022/06/29 08:05:49;;;;;;;5.20;4.80;;;21.10;99.90;;;-141.84;66.40;20039.44;5049979;28;20225;-61
2022/06/29 08:08:17;;;;;;;5.57;5.00;;;21.30;99.90;;;-141.84;66.00;20037.41;5050250;28;20229;-60
2022/06/29 08:10:47;;;;;;;5.63;5.13;;;21.40;99.90;;;-141.84;64.44;20069.94;5068936;28;20220;-61
2022/06/29 08:13:15;;;;;;;5.45;5.00;;;21.50;99.90;;;-141.84;64.55;20098.38;5053703;28;20292;-60
2022/06/29 08:15:45;;;;;;;6.80;4.40;;;21.50;99.90;;;-141.84;64.20;20069.94;5049944;28;20201;-60
2022/06/29 08:18:14;;;;;;;5.55;4.63;;;21.50;99.90;;;-141.84;64.43;20090.25;5050130;28;20235;-60
2022/06/29 08:20:43;;;;;;;5.30;4.90;;;21.50;99.90;;;-141.84;64.04;20076.03;5049740;28;20233;-59
2022/06/29 08:23:12;;;;;;;5.05;4.57;;;21.50;99.90;;;-141.84;62.91;20102.44;5050084;28;20263;-60
2022/06/29 08:25:40;;;;;;;5.25;4.18;;;21.50;99.90;;;-141.84;63.37;20153.25;5049587;28;20252;-60
2022/06/29 08:28:30;;;;;;;4.40;4.00;;;21.60;99.90;;;-141.84;63.71;20074.00;5050157;28;20205;-59
2022/06/29 08:30:58;;;;;;;4.25;3.90;;;21.50;99.90;;;-141.84;63.81;20057.72;5049815;28;20202;-60
2022/06/29 08:33:27;;;;;;;4.78;4.38;;;21.40;99.90;;;-141.84;65.35;19992.69;5049459;28;20235;-58
2022/06/29 08:35:55;;;;;;;4.47;4.07;;;21.10;99.90;;;-141.84;65.95;19976.44;5049388;28;20893;-59
2022/06/29 08:38:23;;;;;;;4.47;4.18;;;20.90;99.90;;;-141.84;66.68;19952.03;5050236;28;20256;-59
2022/06/29 08:40:53;;;;;;;4.30;4.00;;;20.80;99.90;;;-141.84;68.29;19933.75;5049852;28;20221;-60
2022/06/29 08:43:22;;;;;;;4.97;4.53;;;20.80;99.90;;;-141.84;67.85;19933.75;5049414;28;20718;-60
2022/06/29 08:45:53;;;;;;;5.22;4.80;;;20.70;99.90;;;-141.84;67.96;19915.47;5049427;28;20201;-60
2022/06/29 08:48:21;;;;;;;5.07;4.60;;;20.60;99.90;;;-141.84;68.83;19895.13;5049590;28;20256;-60
2022/06/29 08:50:53;;;;;;;5.40;4.88;;;20.60;99.90;;;-141.84;68.35;19923.59;5049326;28;20303;-59
2022/06/29 08:53:23;;;;;;;5.32;4.80;;;20.60;99.90;;;-141.84;69.46;19903.25;5053151;28;20248;-61
2022/06/29 08:55:55;;;;;;;5.18;4.75;;;20.60;99.90;;;-141.84;69.08;19882.94;5053145;28;20650;-60
2022/06/29 08:58:25;;;;;;;5.18;4.78;;;20.60;99.90;;;-141.84;69.52;19899.19;5053492;28;20426;-60
2022/06/29 09:00:55;;;;;;;7.57;5.53;;;20.60;99.90;;;-141.84;70.38;19907.31;5053854;28;20235;-59
2022/06/29 09:03:24;;;;;;;5.55;5.13;;;20.60;99.90;;;-141.84;71.05;19889.03;5052705;28;20601;-59
2022/06/29 09:05:55;;;;;;;5.47;5.03;;;20.70;99.90;;;-141.84;70.50;19840.25;5053084;28;20323;-60
2022/06/29 09:08:25;;;;;;;5.20;4.70;;;20.50;99.90;;;-141.84;71.24;19882.94;5053192;28;20237;-61
2022/06/29 09:10:53;;;;;;;5.05;4.57;;;20.50;99.90;;;-141.84;71.20;19852.44;5052770;28;20241;-59
2022/06/29 09:13:23;;;;;;;4.57;4.25;;;20.60;99.90;;;-141.84;70.01;19960.16;5052365;28;20300;-59
2022/06/29 09:16:00;;;;;;;5.53;4.70;;;20.80;99.90;;;-141.84;66.43;20061.78;5053034;28;20197;-59
2022/06/29 09:18:31;;;;;;;4.97;4.57;;;21.10;99.90;;;-141.84;65.69;20108.53;5052933;28;20316;-59
2022/06/29 09:21:01;;;;;;;5.78;4.60;;;21.50;99.90;;;-141.84;63.00;20139.03;5052467;28;20241;-60
2022/06/29 09:23:31;;;;;;;6.18;4.32;;;21.60;99.90;;;-141.84;62.31;20171.56;5052522;28;20291;-60
2022/06/29 09:26:00;;;;;;;4.22;3.92;;;21.80;99.90;;;-141.84;62.45;20171.56;5052485;28;20239;-60
2022/06/29 09:28:32;;;;;;;5.10;4.30;;;21.90;99.90;;;-141.84;60.77;20220.34;5052451;28;20248;-60
2022/06/29 09:31:02;;;;;;;5.50;4.32;;;22.10;99.90;;;-141.84;59.62;20250.81;5052775;28;20704;-60
2022/06/29 09:33:31;;;;;;;4.40;4.00;;;22.20;99.90;;;-141.84;59.45;20200.00;5052107;28;20282;-61
2022/06/29 09:36:08;;;;;;;3.88;3.58;;;22.10;99.90;;;-141.84;60.45;20220.34;5052563;28;20225;-59
2022/06/29 09:38:37;;;;;;;3.90;3.60;;;22.20;99.90;;;-141.84;59.15;20260.97;5054062;28;20252;-60
2022/06/29 09:41:08;;;;;;;3.90;3.60;;;22.30;99.90;;;-141.84;59.08;20236.59;5072106;28;20244;-60
2022/06/29 09:43:40;;;;;;;4.38;3.40;;;22.30;99.90;;;-141.84;58.63;20240.66;5071548;28;20756;-59
2022/06/29 09:46:12;;;;;;;3.92;3.53;;;22.10;99.90;;;-141.84;59.17;20218.31;5066933;28;20185;-60
2022/06/29 09:48:42;;;;;;;3.50;3.25;;;22.00;99.90;;;-141.84;60.48;20187.81;5052742;28;20572;-58
2022/06/29 09:54:06;;;;;;;7.43;3.40;;;21.80;99.90;;;-141.84;60.36;20191.88;5041602;28;20229;-59
2022/06/29 09:56:39;;;;;;;4.00;3.70;;;21.70;99.90;;;-141.84;59.55;20193.91;5052176;28;20314;-60
2022/06/29 09:59:14;;;;;;;3.88;3.45;;;21.70;99.90;;;-141.84;59.71;20175.63;5052643;28;20300;-59
2022/06/29 10:04:30;;;;;;;3.65;3.38;;;21.80;99.90;;;-141.84;58.95;20244.72;5051245;28;20181;-60
2022/06/29 10:06:59;;;;;;;3.45;3.25;;;21.90;99.90;;;-141.84;58.06;20283.34;5052775;28;20247;-59
2022/06/29 10:09:27;;;;;;;3.47;3.25;;;22.10;99.90;;;-141.84;58.47;20330.09;5060650;28;20266;-59
2022/06/29 10:15:11;;;;;;;3.85;3.55;;;22.50;99.90;;;-141.84;56.52;20376.84;5072015;28;20290;-58
2022/06/29 10:17:57;;;;;;;3.88;3.38;;;22.60;99.90;;;-141.84;55.35;20391.06;5071716;28;20224;-60
2022/06/29 10:20:39;;;;;;;3.92;3.63;;;22.70;99.90;;;-141.84;54.64;20452.06;5072084;28;20232;-59
2022/06/29 10:23:07;;;;;;;3.58;3.30;;;22.80;99.90;;;-141.84;53.04;20474.41;5071763;28;20220;-60
2022/06/29 10:25:37;;;;;;;4.72;4.22;;;23.00;99.90;;;-141.84;52.84;20517.09;5071289;28;20770;-62